Time;durP1;ratioP1;P1;durP2;ratioP2;P2;SDS_P1;SDS_P2;PMS_P1;PMS_P2;Temp;Humidity;BMP_temperature;BMP_pressure;BME280_temperature;BME280_humidity;BME280_pressure;Samples;Min_cycle;Max_cycle;Signal;HPM_P1;HPM_P2
2021/05/11 00:01:16;;;;;;;11.00;8.10;;;;;;;10.00;61.32;97063.39;1873104;75;25632;-80
2021/05/11 00:03:54;;;;;;;12.85;7.85;;;;;;;9.94;61.46;97072.33;1873016;76;25656;-80
2021/05/11 00:06:32;;;;;;;9.53;5.97;;;;;;;9.85;61.46;97072.80;1826503;76;26150;-81
2021/05/11 00:09:10;;;;;;;7.15;5.35;;;;;;;9.77;61.72;97068.48;1814628;76;25562;-82
2021/05/11 00:11:48;;;;;;;10.15;5.60;;;;;;;9.75;61.78;97071.39;1873091;76;25773;-82
2021/05/11 00:14:26;;;;;;;10.50;6.62;;;;;;;9.73;61.77;97070.77;1873066;76;25593;-79
2021/05/11 00:17:04;;;;;;;12.78;7.37;;;;;;;9.67;61.75;97070.27;1835297;76;25786;-81
2021/05/11 00:19:43;;;;;;;9.78;7.40;;;;;;;9.58;62.11;97070.20;1868486;76;25633;-78
2021/05/11 00:22:20;;;;;;;11.20;5.42;;;;;;;9.56;62.18;97065.55;1854168;76;25854;-81
2021/05/11 00:24:58;;;;;;;7.85;5.35;;;;;;;9.53;62.16;97065.99;1839964;76;25804;-79
2021/05/11 00:27:36;;;;;;;9.68;4.92;;;;;;;9.51;62.26;97068.06;1864774;76;25737;-81
2021/05/11 00:30:15;;;;;;;16.42;9.28;;;;;;;9.46;62.27;97064.34;1856478;75;25649;-81
2021/05/11 00:32:54;;;;;;;13.25;7.00;;;;;;;9.28;62.40;97063.69;1873111;76;25676;-80
2021/05/11 00:35:31;;;;;;;12.53;8.05;;;;;;;9.20;62.73;97063.89;1873052;76;25552;-79
2021/05/11 00:38:10;;;;;;;8.80;6.12;;;;;;;9.17;62.90;97066.52;1872987;75;25755;-81
2021/05/11 00:40:48;;;;;;;7.30;4.28;;;;;;;9.12;62.92;97063.61;1873193;76;25672;-79
2021/05/11 00:43:26;;;;;;;8.13;4.30;;;;;;;9.06;62.95;97062.30;1849041;76;25616;-81
2021/05/11 00:46:04;;;;;;;5.72;3.90;;;;;;;9.03;63.06;97058.15;1871719;76;25668;-79
2021/05/11 00:48:43;;;;;;;7.90;4.33;;;;;;;9.03;63.20;97056.80;1830096;76;25837;-81
2021/05/11 00:51:21;;;;;;;6.72;4.50;;;;;;;9.03;63.17;97057.63;1870383;75;25779;-81
2021/05/11 00:54:00;;;;;;;8.43;5.37;;;;;;;8.89;63.23;97060.03;1868060;75;25606;-79
2021/05/11 00:56:38;;;;;;;14.18;5.60;;;;;;;8.79;63.23;97057.45;1811873;76;25895;-79
2021/05/11 00:59:19;;;;;;;7.00;4.83;;;;;;;8.73;63.60;97053.72;1869100;74;25935;-79
2021/05/11 01:02:04;;;;;;;6.10;4.80;;;;;;;8.76;63.82;97050.62;1858278;76;25705;-81
2021/05/11 01:04:44;;;;;;;9.28;4.35;;;;;;;8.79;63.87;97054.77;1841527;76;25464;-81
2021/05/11 01:07:21;;;;;;;7.97;4.40;;;;;;;8.79;63.92;97052.91;1873080;75;25672;-81
2021/05/11 01:09:59;;;;;;;9.43;4.57;;;;;;;8.80;63.96;97055.08;1815835;76;26016;-79
2021/05/11 01:12:37;;;;;;;8.65;4.30;;;;;;;8.75;64.08;97044.92;1853634;75;25647;-81
2021/05/11 01:15:16;;;;;;;9.45;4.53;;;;;;;8.73;64.06;97053.72;1873037;76;25645;-81
2021/05/11 01:18:00;;;;;;;7.17;4.22;;;;;;;8.73;64.29;97048.34;1873090;76;25723;-79
2021/05/11 01:20:38;;;;;;;6.10;4.53;;;;;;;8.75;64.26;97050.31;1826636;76;25590;-81
2021/05/11 01:26:28;;;;;;;10.28;4.97;;;;;;;8.71;64.45;97049.58;1863425;76;25642;-78
2021/05/11 01:29:19;;;;;;;7.78;5.47;;;;;;;8.61;64.50;97041.93;1873016;75;25719;-81
2021/05/11 01:50:28;;;;;;;9.28;5.87;;;;;;;8.34;65.08;97026.81;1834076;76;25683;-79
2021/05/11 01:53:35;;;;;;;10.60;5.03;;;;;;;8.30;65.14;97025.05;1873148;76;25617;-78
2021/05/11 01:56:17;;;;;;;9.28;5.58;;;;;;;8.33;65.21;97022.50;1870884;76;25712;-78
2021/05/11 02:22:45;;;;;;;8.68;5.90;;;;;;;8.25;65.44;97012.72;1855640;76;28015;-80
2021/05/11 02:25:23;;;;;;;13.35;6.28;;;;;;;8.40;64.83;97017.94;1873136;76;25853;-82
2021/05/11 02:28:02;;;;;;;13.10;6.62;;;;;;;8.39;65.20;97016.28;1830582;76;26293;-81
2021/05/11 02:30:41;;;;;;;10.72;6.58;;;;;;;8.30;65.32;97015.12;1886561;74;25623;-81
2021/05/11 02:33:19;;;;;;;10.03;6.72;;;;;;;8.23;65.45;97018.30;1835442;76;25660;-81
2021/05/11 02:35:58;;;;;;;9.60;5.78;;;;;;;8.19;65.51;97021.11;1848814;76;25608;-81
2021/05/11 02:38:35;;;;;;;6.58;4.60;;;;;;;8.05;65.46;97022.64;1873199;76;25651;-79
2021/05/11 02:41:13;;;;;;;10.28;5.08;;;;;;;7.99;65.69;97022.92;1814696;76;25876;-80
2021/05/11 02:43:52;;;;;;;7.28;3.92;;;;;;;7.96;65.89;97012.61;1878802;76;25667;-79
2021/05/11 02:46:30;;;;;;;6.87;4.25;;;;;;;7.94;65.89;97016.84;1832799;76;26235;-81
2021/05/11 02:49:08;;;;;;;6.08;4.28;;;;;;;7.92;65.89;97018.07;1877680;76;25631;-81
2021/05/11 02:51:46;;;;;;;4.97;3.60;;;;;;;7.88;65.89;97012.78;1869024;74;25856;-81
2021/05/11 02:54:24;;;;;;;6.97;3.90;;;;;;;7.88;65.97;97011.44;1886644;74;26316;-82
2021/05/11 02:57:02;;;;;;;6.10;3.90;;;;;;;7.83;65.97;97011.23;1874387;75;25668;-81
2021/05/11 02:59:41;;;;;;;7.03;4.28;;;;;;;7.82;66.11;97012.27;1819015;76;25806;-79
2021/05/11 03:02:20;;;;;;;9.35;4.20;;;;;;;7.80;66.39;97012.47;1833114;76;25730;-80
2021/05/11 03:04:58;;;;;;;7.87;4.40;;;;;;;7.85;66.28;97011.83;1872208;74;25683;-82
2021/05/11 03:07:36;;;;;;;7.87;4.50;;;;;;;7.74;66.35;97009.75;1823321;76;25980;-81
2021/05/11 03:10:16;;;;;;;7.70;4.72;;;;;;;7.79;66.37;97011.32;1866573;74;25830;-81
2021/05/11 03:12:55;;;;;;;9.33;5.33;;;;;;;7.76;66.43;97005.83;1863512;76;25631;-79
2021/05/11 03:15:32;;;;;;;7.33;4.70;;;;;;;7.73;66.42;96996.03;1870516;76;25662;-82
2021/05/11 03:18:10;;;;;;;6.92;5.00;;;;;;;7.71;66.37;97000.77;1834173;76;25615;-81
2021/05/11 03:20:48;;;;;;;7.20;4.37;;;;;;;7.68;66.55;97002.00;1873100;76;25865;-81
2021/05/11 03:23:26;;;;;;;9.08;4.67;;;;;;;7.65;66.68;96992.16;1814448;76;25691;-81
2021/05/11 03:26:04;;;;;;;8.53;4.58;;;;;;;7.65;66.62;96994.34;1827676;76;25613;-79
2021/05/11 03:28:42;;;;;;;7.97;4.50;;;;;;;7.63;66.59;97002.28;1812126;76;25857;-82
2021/05/11 03:31:20;;;;;;;5.67;4.05;;;;;;;7.58;66.68;96998.36;1838292;76;26003;-82
2021/05/11 03:33:58;;;;;;;7.03;4.30;;;;;;;7.45;66.87;97003.69;1809839;76;25710;-82
2021/05/11 03:36:36;;;;;;;14.45;4.50;;;;;;;7.52;67.01;97006.38;1837303;76;25833;-81
2021/05/11 03:39:15;;;;;;;6.75;4.78;;;;;;;7.51;67.08;97006.90;1872690;76;25631;-80
2021/05/11 03:41:55;;;;;;;10.00;4.40;;;;;;;7.50;67.12;97011.95;1873079;76;25849;-79
2021/05/11 03:44:34;;;;;;;5.70;4.67;;;;;;;7.51;67.24;96996.16;1836423;76;25818;-80
2021/05/11 03:47:13;;;;;;;9.88;4.80;;;;;;;7.51;67.36;96998.01;1850254;74;25417;-82
2021/05/11 03:49:51;;;;;;;8.95;5.95;;;;;;;7.47;67.39;97005.66;1873146;76;25614;-81
2021/05/11 03:52:29;;;;;;;8.75;5.60;;;;;;;7.38;67.54;96996.11;1812456;76;25592;-82
2021/05/11 03:55:08;;;;;;;7.28;4.92;;;;;;;7.40;67.74;97000.77;1861578;76;25674;-81
2021/05/11 03:57:47;;;;;;;8.25;5.22;;;;;;;7.26;67.59;96976.75;1806898;76;25618;-80
2021/05/11 04:00:25;;;;;;;9.63;4.78;;;;;;;7.42;67.94;96998.72;1849170;76;26194;-79
2021/05/11 04:03:03;;;;;;;9.25;5.12;;;;;;;7.45;67.98;96986.23;1840806;76;25655;-82
2021/05/11 04:05:42;;;;;;;11.03;5.42;;;;;;;7.53;68.07;96987.90;1839330;76;25739;-79
2021/05/11 04:08:34;;;;;;;12.40;5.10;;;;;;;7.58;68.10;96984.10;1827113;76;25243;-82
2021/05/11 04:11:18;;;;;;;14.67;6.57;;;;;;;7.65;68.27;96978.22;1848522;75;38287;-79
2021/05/11 04:14:16;;;;;;;8.33;5.50;;;;;;;7.84;67.59;96983.34;1869937;76;25790;-81
2021/05/11 04:16:54;;;;;;;7.12;5.00;;;;;;;7.86;68.19;96973.19;1851179;74;25752;-80
2021/05/11 04:19:32;;;;;;;8.13;6.05;;;;;;;7.88;68.40;96981.88;1837763;76;25627;-81
2021/05/11 04:22:10;;;;;;;8.73;5.42;;;;;;;7.90;68.45;96973.92;1836542;76;25695;-79
2021/05/11 04:24:48;;;;;;;10.93;6.40;;;;;;;7.97;68.64;96969.89;1819487;76;25938;-81
2021/05/11 04:27:27;;;;;;;14.43;6.45;;;;;;;8.05;68.71;96968.36;1880590;76;25674;-81
2021/05/11 04:30:07;;;;;;;10.00;6.87;;;;;;;8.14;68.85;96971.16;1816482;76;25742;-79
2021/05/11 04:32:46;;;;;;;11.65;6.15;;;;;;;8.22;68.85;96974.14;1829417;76;26096;-80
2021/05/11 04:35:25;;;;;;;10.75;6.40;;;;;;;8.28;68.80;96971.47;1873095;74;25708;-79
2021/05/11 04:38:04;;;;;;;11.40;6.17;;;;;;;8.39;68.94;96967.87;1848979;76;25569;-82
2021/05/11 04:40:43;;;;;;;13.18;6.62;;;;;;;8.51;68.84;96976.96;1816149;76;25520;-79
2021/05/11 04:43:24;;;;;;;16.77;6.75;;;;;;;8.62;68.84;96969.59;1870242;76;25673;-81
2021/05/11 04:46:12;;;;;;;12.82;6.75;;;;;;;8.74;68.66;96971.12;1870165;76;25894;-78
2021/05/11 04:48:50;;;;;;;15.00;6.37;;;;;;;8.87;68.68;96971.10;1861115;76;25463;-82
2021/05/11 04:51:28;;;;;;;19.23;8.10;;;;;;;8.95;68.37;96969.00;1829808;76;25866;-81
2021/05/11 04:54:07;;;;;;;22.13;8.85;;;;;;;9.08;68.20;96969.99;1873147;76;25638;-81
2021/05/11 04:56:46;;;;;;;12.63;7.37;;;;;;;9.19;68.14;96973.37;1826437;76;25659;-81
2021/05/11 04:59:24;;;;;;;16.77;7.55;;;;;;;9.28;68.14;96958.65;1810920;76;25719;-81
2021/05/11 05:02:04;;;;;;;21.35;7.67;;;;;;;9.37;68.25;96959.53;1822967;76;25731;-82
2021/05/11 05:04:42;;;;;;;21.37;7.30;;;;;;;9.46;68.27;96956.06;1844778;76;25697;-79
2021/05/11 05:07:20;;;;;;;17.30;8.23;;;;;;;9.54;68.25;96951.76;1873172;76;25582;-79
2021/05/11 05:09:58;;;;;;;14.40;7.70;;;;;;;9.63;68.39;96950.48;1873068;76;25597;-81
2021/05/11 05:12:37;;;;;;;21.68;6.78;;;;;;;9.74;68.34;96952.48;1838389;76;25601;-82
2021/05/11 05:15:15;;;;;;;11.40;6.60;;;;;;;9.86;67.99;96950.44;1873002;76;25564;-81
2021/05/11 05:17:53;;;;;;;16.15;7.47;;;;;;;9.98;67.84;96947.35;1873120;76;25710;-82
2021/05/11 05:20:31;;;;;;;17.27;7.03;;;;;;;10.11;67.77;96951.30;1839362;76;25723;-81
2021/05/11 05:23:09;;;;;;;14.33;6.58;;;;;;;10.24;68.18;96945.00;1854742;76;25711;-79
2021/05/11 05:25:56;;;;;;;14.13;6.40;;;;;;;10.36;68.30;96938.67;1842074;76;25709;-79
2021/05/11 05:28:33;;;;;;;12.60;7.03;;;;;;;10.50;68.39;96933.16;1872985;76;25550;-82
2021/05/11 05:31:11;;;;;;;14.10;6.35;;;;;;;10.60;68.32;96932.13;1829144;76;25681;-81
2021/05/11 05:33:49;;;;;;;17.50;7.58;;;;;;;10.71;68.21;96928.68;1825797;76;25626;-81
2021/05/11 05:36:27;;;;;;;17.55;8.65;;;;;;;10.84;67.94;96925.84;1826434;76;25703;-79
2021/05/11 05:39:06;;;;;;;15.72;8.30;;;;;;;10.95;67.63;96921.04;1873122;76;25716;-79
2021/05/11 05:41:44;;;;;;;22.10;9.18;;;;;;;11.12;67.52;96919.89;1873155;76;25904;-81
2021/05/11 05:44:23;;;;;;;19.52;8.30;;;;;;;11.28;67.14;96913.05;1869833;75;25506;-81
2021/05/11 05:47:02;;;;;;;26.77;8.70;;;;;;;11.44;67.14;96913.25;1873061;76;25660;-82
2021/05/11 05:49:43;;;;;;;24.87;9.20;;;;;;;11.60;66.76;96916.34;1833841;76;25691;-82
2021/05/11 05:52:21;;;;;;;30.27;10.93;;;;;;;11.72;66.31;96912.63;1873052;76;25800;-82
2021/05/11 05:55:00;;;;;;;24.18;9.98;;;;;;;11.85;66.37;96909.77;1873024;76;25683;-82
2021/05/11 05:57:39;;;;;;;21.23;8.95;;;;;;;12.04;66.77;96907.00;1843820;76;25601;-80
2021/05/11 06:00:18;;;;;;;16.07;7.65;;;;;;;12.20;66.39;96903.59;1873066;76;25545;-81
2021/05/11 06:03:06;;;;;;;9.98;6.35;;;;;;;12.35;66.19;96899.91;1868538;76;25759;-82
2021/05/11 06:05:44;;;;;;;13.00;5.97;;;;;;;12.50;65.81;96888.62;1862607;76;25651;-82
2021/05/11 06:08:23;;;;;;;15.68;5.60;;;;;;;12.63;65.32;96885.67;1828055;76;26118;-80
2021/05/11 06:11:10;;;;;;;10.58;5.10;;;;;;;12.81;65.01;96884.69;1873084;75;25629;-80
2021/05/11 06:13:50;;;;;;;12.23;4.53;;;;;;;12.96;64.59;96881.78;1835418;76;25717;-80
2021/05/11 06:19:20;;;;;;;11.05;4.50;;;;;;;13.48;64.35;96877.71;1853581;76;25864;-80
2021/05/11 06:21:59;;;;;;;9.30;4.35;;;;;;;13.66;64.13;96876.67;1848855;76;25674;-80
2021/05/11 06:24:39;;;;;;;15.23;5.05;;;;;;;13.79;63.90;96870.94;1873108;76;25689;-81
2021/05/11 06:27:19;;;;;;;9.13;4.10;;;;;;;13.94;63.54;96864.43;1835383;76;26428;-80
2021/05/11 06:29:58;;;;;;;7.95;4.40;;;;;;;14.09;63.30;96857.61;1873062;76;25943;-80
2021/05/11 06:32:35;;;;;;;8.88;4.42;;;;;;;14.29;63.10;96858.75;1870316;76;25853;-81
2021/05/11 06:35:15;;;;;;;7.83;4.33;;;;;;;14.52;62.94;96859.13;1873107;76;25596;-82
2021/05/11 06:38:01;;;;;;;6.97;4.62;;;;;;;14.81;62.54;96851.66;1848724;76;25637;-81
2021/05/11 06:40:40;;;;;;;6.55;3.60;;;;;;;14.99;62.50;96858.67;1849089;75;25728;-81
2021/05/11 06:43:24;;;;;;;6.85;4.05;;;;;;;15.12;62.14;96848.78;1873031;76;25593;-80
2021/05/11 06:46:19;;;;;;;8.80;4.30;;;;;;;15.25;61.92;96851.66;1849201;76;25719;-80
2021/05/11 06:48:55;;;;;;;8.50;4.67;;;;;;;15.45;61.06;96854.08;1857022;76;27789;-80
2021/05/11 06:54:43;;;;;;;5.55;3.67;;;;;;;15.97;60.62;96839.08;1872740;76;25596;-81
2021/05/11 06:57:22;;;;;;;6.12;3.55;;;;;;;16.17;60.51;96842.81;1842822;76;25670;-82
2021/05/11 07:00:00;;;;;;;6.95;3.42;;;;;;;16.36;59.79;96845.12;1878681;74;25662;-81
2021/05/11 07:02:38;;;;;;;6.62;3.47;;;;;;;16.49;59.02;96847.39;1849194;76;25910;-83
2021/05/11 07:05:17;;;;;;;7.67;4.17;;;;;;;16.63;58.48;96843.16;1873059;76;25699;-81
2021/05/11 07:08:08;;;;;;;5.87;3.37;;;;;;;16.78;58.21;96847.34;1819594;76;25570;-82
2021/05/11 07:10:48;;;;;;;5.47;3.80;;;;;;;16.92;57.64;96846.30;1873048;76;25656;-81
2021/05/11 07:13:25;;;;;;;5.83;3.27;;;;;;;17.06;57.19;96844.73;1863140;76;25702;-81
2021/05/11 07:16:04;;;;;;;7.12;3.42;;;;;;;17.22;56.74;96833.36;1870278;76;25836;-83
2021/05/11 07:18:43;;;;;;;3.60;2.85;;;;;;;17.41;56.97;96837.22;1847042;76;25612;-85
2021/05/11 07:21:22;;;;;;;5.58;3.10;;;;;;;17.59;56.31;96831.28;1869236;76;25699;-85
2021/05/11 07:24:04;;;;;;;5.00;3.30;;;;;;;17.80;55.73;96819.05;1856885;76;25751;-84
2021/05/11 07:26:56;;;;;;;6.55;3.42;;;;;;;17.98;55.29;96821.27;1879698;74;25758;-83
2021/05/11 07:29:39;;;;;;;4.87;3.08;;;;;;;18.20;54.93;96809.52;1830827;76;25783;-82
2021/05/11 07:32:09;;;;;;;5.95;3.05;;;;;;;18.42;54.44;96811.12;1873058;76;25676;-83
2021/05/11 07:34:51;;;;;;;9.55;3.22;;;;;;;18.71;54.21;96805.38;1873100;76;25644;-84
2021/05/11 07:37:27;;;;;;;8.40;3.00;;;;;;;19.24;53.84;96798.86;1878567;74;25676;-84
2021/05/11 07:40:07;;;;;;;3.98;2.77;;;;;;;19.84;52.95;96800.45;1873218;75;25608;-84
2021/05/11 07:42:46;;;;;;;9.03;3.02;;;;;;;20.47;52.17;96797.20;1872977;76;25740;-84
2021/05/11 07:45:32;;;;;;;4.62;2.60;;;;;;;21.11;51.92;96802.81;1873028;76;25712;-85
2021/05/11 07:48:32;;;;;;;4.65;2.90;;;;;;;21.72;50.61;96797.09;1808136;76;25607;-85
2021/05/11 07:51:18;;;;;;;8.50;2.90;;;;;;;22.31;49.89;96801.94;1855153;76;25547;-84
2021/05/11 08:15:23;;;;;;;7.58;2.33;;;;;;;26.39;42.23;96784.05;1873213;76;25615;-84
2021/05/11 08:18:13;;;;;;;5.45;3.10;;;;;;;26.78;41.59;96785.75;1834465;75;25912;-86
2021/05/11 08:29:53;;;;;;;3.50;2.00;;;;;;;28.37;37.37;96778.06;1873181;76;25778;-84
2021/05/11 08:32:33;;;;;;;6.25;2.40;;;;;;;28.74;36.83;96776.98;1848507;76;25679;-84
2021/05/11 08:35:12;;;;;;;6.12;2.67;;;;;;;28.99;36.29;96777.30;1848784;76;25657;-85
2021/05/11 08:37:51;;;;;;;8.05;2.62;;;;;;;29.48;35.96;96780.12;1813129;76;25620;-84
2021/05/11 08:40:30;;;;;;;2.60;2.00;;;;;;;29.90;34.97;96779.84;1839973;76;25654;-85
2021/05/11 08:43:32;;;;;;;7.47;2.33;;;;;;;30.26;34.05;96772.80;1856520;76;25597;-83
2021/05/11 08:46:12;;;;;;;6.20;2.80;;;;;;;30.61;32.89;96780.56;1871680;76;25573;-84
2021/05/11 08:48:52;;;;;;;5.15;2.98;;;;;;;30.73;32.98;96765.98;1841293;76;25629;-83
2021/05/11 08:51:33;;;;;;;6.15;3.02;;;;;;;30.95;32.55;96771.52;1873083;74;25260;-81
2021/05/11 09:06:45;;;;;;;4.50;2.47;;;;;;;32.10;28.78;96761.95;1849541;76;28442;-83
2021/05/11 09:09:39;;;;;;;8.18;2.10;;;;;;;32.43;27.44;96760.06;1873086;76;25906;-82
2021/05/11 09:15:51;;;;;;;5.30;2.30;;;;;;;32.20;27.46;96757.20;1808854;76;27907;-82
2021/05/11 09:27:36;;;;;;;5.55;2.50;;;;;;;32.19;26.98;96750.00;1875604;76;25684;-84
2021/05/11 09:30:19;;;;;;;9.58;2.80;;;;;;;32.03;27.08;96752.02;1870773;76;25632;-86
2021/05/11 09:33:06;;;;;;;4.20;2.27;;;;;;;31.95;26.91;96753.05;1873150;76;25695;-83
2021/05/11 09:45:20;;;;;;;4.62;2.15;;;;;;;31.61;26.52;96741.52;1827935;76;25534;-82
2021/05/11 09:51:18;;;;;;;7.95;2.50;;;;;;;31.60;26.90;96735.70;1847543;76;27838;-82
2021/05/11 09:56:51;;;;;;;7.80;2.60;;;;;;;31.77;26.44;96735.31;1865222;76;25655;-81
2021/05/11 10:00:03;;;;;;;4.37;2.10;;;;;;;31.78;26.60;96731.35;1867994;76;25801;-81
2021/05/11 10:12:28;;;;;;;5.92;2.40;;;;;;;31.79;26.14;96716.81;1832949;76;25584;-82
2021/05/11 10:40:22;;;;;;;5.10;2.15;;;;;;;32.99;24.87;96697.44;1881450;74;25545;-81
2021/05/11 10:46:41;;;;;;;3.30;2.25;;;;;;;33.15;25.23;96692.52;1853410;76;25774;-81
2021/05/11 10:49:36;;;;;;;6.53;2.53;;;;;;;33.23;24.65;96692.03;1858376;74;32806;-81
2021/05/11 10:52:21;;;;;;;7.28;2.35;;;;;;;33.40;24.13;96686.53;1873169;76;25648;-82
2021/05/11 10:55:12;;;;;;;4.10;2.25;;;;;;;33.50;24.36;96681.68;1830674;76;25865;-81
2021/05/11 10:57:53;;;;;;;5.62;2.33;;;;;;;33.55;24.32;96681.37;1873231;76;25597;-81
2021/05/11 11:00:41;;;;;;;6.53;2.80;;;;;;;33.50;24.36;96680.28;1862785;76;25729;-82
2021/05/11 11:03:26;;;;;;;5.10;1.98;;;;;;;33.45;23.47;96676.44;1836708;76;25733;-82
2021/05/11 11:06:06;;;;;;;3.52;2.20;;;;;;;33.41;23.55;96669.97;1855957;76;25731;-82
2021/05/11 11:08:44;;;;;;;7.65;2.47;;;;;;;33.46;24.09;96670.43;1847676;76;25772;-82
2021/05/11 11:11:24;;;;;;;7.75;2.52;;;;;;;33.56;24.17;96677.39;1816034;76;25716;-81
2021/05/11 11:14:02;;;;;;;7.97;2.37;;;;;;;33.62;23.90;96676.66;1830191;76;25710;-82
2021/05/11 11:16:40;;;;;;;4.65;2.25;;;;;;;33.65;23.91;96672.31;1881532;76;25746;-82
2021/05/11 11:19:18;;;;;;;7.85;2.25;;;;;;;33.67;24.66;96665.74;1864305;76;25632;-82
2021/05/11 11:23:32;;;;;;;2.92;1.75;;;;;;;33.74;23.74;96656.03;1861280;76;25709;-82
2021/05/11 11:24:42;;;;;;;5.53;2.20;;;;;;;33.74;23.07;96658.02;1863588;76;25599;-82
2021/05/11 11:27:32;;;;;;;5.25;2.20;;;;;;;33.75;23.62;96657.67;1873189;76;25612;-82
2021/05/11 11:30:13;;;;;;;6.17;2.08;;;;;;;33.89;24.02;96655.06;1830092;76;25683;-82
2021/05/11 11:32:52;;;;;;;5.72;1.85;;;;;;;34.09;23.78;96646.48;1848788;76;26278;-82
2021/05/11 11:35:33;;;;;;;7.05;2.15;;;;;;;34.27;24.75;96646.13;1873045;76;25993;-82
2021/05/11 11:38:24;;;;;;;2.90;1.77;;;;;;;34.39;24.28;96635.25;1848831;76;25874;-82
2021/05/11 11:41:03;;;;;;;8.38;2.20;;;;;;;34.57;24.62;96641.22;1873124;76;25811;-81
2021/05/11 11:43:41;;;;;;;9.45;2.37;;;;;;;34.58;24.21;96644.23;1873076;76;25777;-81
2021/05/11 11:46:28;;;;;;;11.05;2.45;;;;;;;34.65;24.33;96637.31;1872922;76;25719;-82
2021/05/11 11:49:11;;;;;;;10.38;2.40;;;;;;;34.78;25.03;96630.04;1867371;76;25768;-81
2021/05/11 11:52:06;;;;;;;7.50;2.30;;;;;;;34.91;24.39;96635.53;1848650;76;25711;-82
2021/05/11 11:54:48;;;;;;;5.10;1.90;;;;;;;34.99;23.55;96625.41;1837834;76;25991;-81
2021/05/11 11:57:50;;;;;;;9.40;2.52;;;;;;;34.99;23.56;96621.79;1873168;76;25687;-82
2021/05/11 12:00:34;;;;;;;6.30;1.90;;;;;;;34.99;23.33;96621.79;1828472;76;25682;-81
2021/05/11 12:03:14;;;;;;;5.83;2.05;;;;;;;34.95;22.76;96617.55;1863243;74;38801;-82
2021/05/11 12:05:53;;;;;;;4.92;1.98;;;;;;;35.04;22.21;96611.59;1880282;74;25628;-81
2021/05/11 12:08:31;;;;;;;9.90;2.60;;;;;;;35.03;21.85;96603.78;1872507;76;25787;-81
2021/05/11 12:11:10;;;;;;;5.55;2.30;;;;;;;35.03;21.81;96608.58;1820560;76;25716;-81
2021/05/11 12:13:53;;;;;;;5.72;2.10;;;;;;;34.90;21.17;96604.51;1871132;76;25662;-82
2021/05/11 12:16:31;;;;;;;7.80;2.10;;;;;;;34.74;22.02;96606.74;1816564;76;26183;-82
2021/05/11 12:19:15;;;;;;;9.70;2.80;;;;;;;34.74;21.58;96601.94;1873137;76;25640;-81
2021/05/11 12:22:00;;;;;;;5.50;2.20;;;;;;;34.65;21.36;96599.48;1873129;76;25728;-81
2021/05/11 12:24:44;;;;;;;4.25;2.12;;;;;;;34.68;21.28;96599.27;1873175;76;25675;-81
2021/05/11 12:27:23;;;;;;;6.10;2.05;;;;;;;34.75;20.85;96595.73;1834998;76;25714;-82
2021/05/11 12:30:08;;;;;;;4.35;1.67;;;;;;;34.72;20.84;96593.11;1853803;76;25667;-81
2021/05/11 12:32:47;;;;;;;8.57;2.13;;;;;;;34.62;20.75;96584.83;1857092;76;38070;-81
2021/05/11 12:35:30;;;;;;;9.13;2.50;;;;;;;34.81;20.76;96584.39;1872917;76;25639;-84
2021/05/11 12:38:21;;;;;;;5.70;1.80;;;;;;;34.83;21.38;96582.01;1849131;76;26067;-81
2021/05/11 12:41:07;;;;;;;4.53;2.22;;;;;;;34.82;21.12;96581.80;1873233;76;26269;-82
2021/05/11 12:43:48;;;;;;;6.65;1.90;;;;;;;34.78;21.00;96577.55;1834270;76;25713;-84
2021/05/11 12:46:36;;;;;;;8.88;2.02;;;;;;;34.79;21.20;96581.16;1851731;76;25804;-82
2021/05/11 12:49:18;;;;;;;6.73;2.47;;;;;;;34.52;21.75;96565.94;1841238;74;31793;-82
2021/05/11 12:51:56;;;;;;;4.53;2.00;;;;;;;34.73;22.03;96565.89;1820926;76;25691;-85
2021/05/11 12:54:47;;;;;;;5.80;2.08;;;;;;;34.71;22.23;96566.27;1872926;76;25695;-84
2021/05/11 12:57:40;;;;;;;9.95;2.15;;;;;;;34.74;21.76;96566.09;1870917;76;25761;-81
2021/05/11 13:00:26;;;;;;;3.50;1.80;;;;;;;34.76;21.50;96562.34;1830459;76;26117;-81
2021/05/11 13:03:09;;;;;;;4.53;1.90;;;;;;;34.81;21.20;96559.16;1817513;76;25731;-83
2021/05/11 13:21:22;;;;;;;9.25;2.67;;;;;;;34.79;21.19;96531.52;1827718;76;25684;-84
2021/05/11 13:27:01;;;;;;;9.60;2.60;;;;;;;34.98;21.29;96530.45;1857211;76;27859;-83
2021/05/11 13:29:47;;;;;;;5.72;2.22;;;;;;;35.27;21.12;96523.81;1838502;76;25691;-81
2021/05/11 13:32:28;;;;;;;5.78;2.05;;;;;;;35.28;20.33;96519.81;1872973;76;25700;-81
2021/05/11 13:35:04;;;;;;;5.25;1.90;;;;;;;35.29;20.56;96519.22;1818725;76;25662;-81
2021/05/11 13:37:42;;;;;;;5.83;2.55;;;;;;;35.19;20.05;96504.52;1872599;75;25836;-81
2021/05/11 13:40:21;;;;;;;8.30;2.17;;;;;;;35.10;20.26;96499.27;1865042;76;25660;-82
2021/05/11 13:43:00;;;;;;;9.63;2.50;;;;;;;34.99;20.57;96495.61;1867694;76;25641;-81
2021/05/11 13:45:39;;;;;;;8.60;2.17;;;;;;;34.64;21.15;96492.77;1866697;76;25652;-82
2021/05/11 13:48:21;;;;;;;4.20;1.75;;;;;;;34.48;21.51;96489.44;1866580;76;25740;-82
2021/05/11 13:51:00;;;;;;;7.37;2.47;;;;;;;34.40;21.37;96496.78;1821152;76;25683;-82
2021/05/11 13:53:41;;;;;;;10.43;2.47;;;;;;;34.33;20.74;96490.52;1863495;75;25570;-82
2021/05/11 13:56:37;;;;;;;8.38;2.17;;;;;;;34.19;20.87;96488.96;1827644;76;25612;-82
2021/05/11 14:05:14;;;;;;;10.15;2.47;;;;;;;34.20;20.86;96482.97;1872870;76;25596;-82
2021/05/11 14:07:53;;;;;;;9.78;2.30;;;;;;;34.28;20.98;96483.89;1825802;76;25747;-82
2021/05/11 14:10:31;;;;;;;5.30;2.30;;;;;;;34.13;20.72;96479.32;1873217;76;26090;-82
2021/05/11 14:13:09;;;;;;;7.03;2.40;;;;;;;34.08;21.09;96472.66;1814708;75;25686;-82
2021/05/11 14:15:47;;;;;;;7.33;2.35;;;;;;;34.20;21.36;96472.36;1852541;76;25657;-82
2021/05/11 14:18:26;;;;;;;8.43;2.83;;;;;;;34.28;21.62;96469.88;1872617;76;25759;-83
2021/05/11 14:21:06;;;;;;;7.85;2.00;;;;;;;34.38;21.91;96460.75;1870432;76;25760;-82
2021/05/11 14:23:45;;;;;;;9.30;2.35;;;;;;;34.47;21.62;96465.41;1871964;76;25670;-83
2021/05/11 14:26:25;;;;;;;3.20;2.20;;;;;;;34.48;21.10;96460.02;1845159;76;25685;-81
2021/05/11 14:29:04;;;;;;;4.65;2.15;;;;;;;34.39;20.97;96457.36;1867113;76;26143;-81
2021/05/11 14:31:43;;;;;;;8.45;2.20;;;;;;;34.31;20.50;96453.68;1869260;76;26188;-83
2021/05/11 14:34:24;;;;;;;12.03;2.60;;;;;;;34.22;20.99;96454.59;1873034;76;26092;-81
2021/05/11 14:37:02;;;;;;;8.45;2.52;;;;;;;34.21;21.35;96455.77;1840436;75;25415;-80
2021/05/11 14:39:41;;;;;;;5.05;2.58;;;;;;;34.25;21.25;96453.22;1851219;76;26260;-81
2021/05/11 14:42:20;;;;;;;8.13;2.58;;;;;;;34.22;21.47;96447.58;1872972;76;25626;-81
2021/05/11 14:45:03;;;;;;;7.85;2.70;;;;;;;34.04;21.09;96436.84;1873008;76;25584;-80
2021/05/11 14:47:46;;;;;;;4.67;2.37;;;;;;;34.00;21.13;96438.20;1840111;76;25549;-81
2021/05/11 14:50:25;;;;;;;6.37;2.55;;;;;;;34.06;21.49;96442.84;1879958;75;25588;-83
2021/05/11 14:53:04;;;;;;;5.42;2.45;;;;;;;33.98;20.98;96442.80;1872755;76;25254;-82
2021/05/11 14:55:43;;;;;;;7.17;2.17;;;;;;;33.81;21.09;96443.42;1840310;75;25259;-82
2021/05/11 14:58:22;;;;;;;6.70;3.47;;;;;;;33.62;20.75;96431.02;1873093;76;25676;-82
2021/05/11 15:01:01;;;;;;;8.05;2.55;;;;;;;33.51;20.88;96439.91;1840399;75;25609;-83
2021/05/11 15:03:40;;;;;;;14.40;3.15;;;;;;;33.41;21.26;96436.41;1860734;74;25687;-82
2021/05/11 15:06:19;;;;;;;5.87;2.77;;;;;;;33.22;21.46;96438.14;1872970;75;25699;-81
2021/05/11 15:08:57;;;;;;;6.92;2.37;;;;;;;33.10;21.42;96431.41;1840968;76;25506;-82
2021/05/11 15:11:36;;;;;;;9.73;2.72;;;;;;;32.78;21.34;96428.22;1873125;76;25651;-80
2021/05/11 15:14:15;;;;;;;4.33;2.70;;;;;;;32.48;21.45;96433.75;1862430;76;25741;-84
2021/05/11 15:16:59;;;;;;;5.25;2.70;;;;;;;32.34;22.18;96433.56;1873042;76;25683;-82
2021/05/11 15:19:38;;;;;;;7.72;2.05;;;;;;;32.03;21.48;96428.23;1848990;76;25743;-82
2021/05/11 15:22:16;;;;;;;4.35;2.08;;;;;;;31.74;21.94;96425.56;1835300;76;25612;-81
2021/05/11 15:24:55;;;;;;;8.78;2.58;;;;;;;31.61;22.73;96419.92;1835653;76;25610;-81
2021/05/11 15:27:34;;;;;;;5.25;2.10;;;;;;;31.43;22.78;96425.16;1855239;76;25949;-81
2021/05/11 15:30:16;;;;;;;4.40;2.45;;;;;;;31.25;22.89;96416.47;1840322;76;25648;-80
2021/05/11 15:32:57;;;;;;;9.83;2.92;;;;;;;31.16;23.47;96426.25;1826184;76;25628;-80
2021/05/11 15:35:36;;;;;;;5.10;2.80;;;;;;;31.00;22.90;96425.70;1808499;76;25658;-82
2021/05/11 15:38:15;;;;;;;5.97;2.55;;;;;;;30.77;22.88;96417.86;1836394;76;25738;-81
2021/05/11 15:40:53;;;;;;;7.05;2.58;;;;;;;30.47;23.00;96422.32;1852462;76;25571;-82
2021/05/11 15:43:35;;;;;;;5.72;2.47;;;;;;;30.24;23.05;96410.48;1825286;76;25595;-83